Terminal Aerodrome Forecast
Issued by NWS Wilmington, OH

Current Version | Previous Version | Text Only | Print | Product List | Glossary On
Versions: 1 2 3 4 5 6 7 8 9 10 11 12 13 14 15 16 17 18 19 20 21 22 23 24 25
000 FTUS41 KILN 222300 TAFCVG TAF KCVG 222320Z 2300/2406 19008KT P6SM BKN080 FM230800 19008KT P6SM VCSH BKN040 BKN080 FM231200 15008KT P6SM VCSH BKN025 OVC040 FM231900 14010G18KT 4SM -SHRA BR OVC025 FM232200 14012G20KT 2SM SHRA BR OVC007 FM240400 17015G22KT 5SM -SHRA BR OVC007=

USA.gov is the U.S. government's official web portal to all federal, state and local government web resources and services.